sensor_id;sensor_type;location;lat;lon;timestamp;P1;durP1;ratioP1;P2;durP2;ratioP2
69369;SDS011;56530;42.640;23.372;2023-06-10T00:01:12;7.20;;;6.13;;
69369;SDS011;56530;42.640;23.372;2023-06-10T00:03:37;9.33;;;6.90;;
69369;SDS011;56530;42.640;23.372;2023-06-10T00:06:02;7.97;;;6.50;;
69369;SDS011;56530;42.640;23.372;2023-06-10T00:08:28;8.00;;;6.95;;
69369;SDS011;56530;42.640;23.372;2023-06-10T00:10:56;9.23;;;6.78;;
69369;SDS011;56530;42.640;23.372;2023-06-10T00:13:21;8.07;;;7.10;;
69369;SDS011;56530;42.640;23.372;2023-06-10T00:15:47;8.30;;;6.70;;
69369;SDS011;56530;42.640;23.372;2023-06-10T00:18:12;9.20;;;6.97;;
69369;SDS011;56530;42.640;23.372;2023-06-10T00:20:38;9.37;;;6.97;;
69369;SDS011;56530;42.640;23.372;2023-06-10T00:23:04;7.93;;;6.88;;
69369;SDS011;56530;42.640;23.372;2023-06-10T00:25:31;6.88;;;6.18;;
69369;SDS011;56530;42.640;23.372;2023-06-10T00:27:58;8.27;;;6.43;;
69369;SDS011;56530;42.640;23.372;2023-06-10T00:30:23;8.37;;;6.97;;
69369;SDS011;56530;42.640;23.372;2023-06-10T00:32:48;8.40;;;6.70;;
69369;SDS011;56530;42.640;23.372;2023-06-10T00:35:14;8.93;;;6.97;;
69369;SDS011;56530;42.640;23.372;2023-06-10T00:37:39;9.77;;;7.10;;
69369;SDS011;56530;42.640;23.372;2023-06-10T00:40:05;7.67;;;6.90;;
69369;SDS011;56530;42.640;23.372;2023-06-10T00:42:31;8.00;;;7.20;;
69369;SDS011;56530;42.640;23.372;2023-06-10T00:44:56;11.57;;;7.50;;
69369;SDS011;56530;42.640;23.372;2023-06-10T00:47:22;7.80;;;7.00;;
69369;SDS011;56530;42.640;23.372;2023-06-10T00:49:48;9.33;;;6.30;;
69369;SDS011;56530;42.640;23.372;2023-06-10T00:52:15;8.17;;;7.10;;
69369;SDS011;56530;42.640;23.372;2023-06-10T00:54:42;8.73;;;7.13;;
69369;SDS011;56530;42.640;23.372;2023-06-10T00:57:07;10.65;;;7.45;;
69369;SDS011;56530;42.640;23.372;2023-06-10T00:59:33;8.10;;;7.30;;
69369;SDS011;56530;42.640;23.372;2023-06-10T01:01:59;7.97;;;7.17;;
69369;SDS011;56530;42.640;23.372;2023-06-10T01:04:25;8.57;;;7.78;;
69369;SDS011;56530;42.640;23.372;2023-06-10T01:06:56;11.65;;;8.90;;
69369;SDS011;56530;42.640;23.372;2023-06-10T01:14:51;10.18;;;9.15;;
69369;SDS011;56530;42.640;23.372;2023-06-10T01:17:17;10.13;;;9.05;;
69369;SDS011;56530;42.640;23.372;2023-06-10T01:19:43;10.03;;;8.90;;
69369;SDS011;56530;42.640;23.372;2023-06-10T01:22:09;10.02;;;9.15;;
69369;SDS011;56530;42.640;23.372;2023-06-10T01:24:35;9.43;;;8.43;;
69369;SDS011;56530;42.640;23.372;2023-06-10T01:27:02;9.85;;;8.85;;
69369;SDS011;56530;42.640;23.372;2023-06-10T01:29:54;10.82;;;8.80;;
69369;SDS011;56530;42.640;23.372;2023-06-10T01:34:52;10.38;;;8.20;;
69369;SDS011;56530;42.640;23.372;2023-06-10T01:37:19;10.68;;;8.80;;
69369;SDS011;56530;42.640;23.372;2023-06-10T01:39:47;9.90;;;8.90;;
69369;SDS011;56530;42.640;23.372;2023-06-10T01:42:13;9.13;;;8.23;;
69369;SDS011;56530;42.640;23.372;2023-06-10T01:44:39;10.07;;;8.70;;
69369;SDS011;56530;42.640;23.372;2023-06-10T01:47:05;10.98;;;9.68;;
69369;SDS011;56530;42.640;23.372;2023-06-10T01:49:30;10.45;;;9.25;;
69369;SDS011;56530;42.640;23.372;2023-06-10T01:51:56;11.57;;;9.05;;
69369;SDS011;56530;42.640;23.372;2023-06-10T01:54:21;9.82;;;8.98;;
69369;SDS011;56530;42.640;23.372;2023-06-10T01:56:46;9.35;;;8.52;;
69369;SDS011;56530;42.640;23.372;2023-06-10T01:59:12;10.00;;;9.00;;
69369;SDS011;56530;42.640;23.372;2023-06-10T02:01:37;10.53;;;9.13;;
69369;SDS011;56530;42.640;23.372;2023-06-10T02:04:02;9.87;;;8.87;;
69369;SDS011;56530;42.640;23.372;2023-06-10T02:06:28;11.53;;;9.17;;
69369;SDS011;56530;42.640;23.372;2023-06-10T02:08:53;10.43;;;8.52;;
69369;SDS011;56530;42.640;23.372;2023-06-10T02:11:19;9.82;;;8.82;;
69369;SDS011;56530;42.640;23.372;2023-06-10T02:13:44;10.88;;;9.30;;
69369;SDS011;56530;42.640;23.372;2023-06-10T02:16:10;10.15;;;9.15;;
69369;SDS011;56530;42.640;23.372;2023-06-10T02:18:38;10.40;;;9.00;;
69369;SDS011;56530;42.640;23.372;2023-06-10T02:21:05;11.30;;;8.90;;
69369;SDS011;56530;42.640;23.372;2023-06-10T02:23:32;11.95;;;8.98;;
69369;SDS011;56530;42.640;23.372;2023-06-10T02:25:57;9.60;;;8.60;;
69369;SDS011;56530;42.640;23.372;2023-06-10T02:28:22;10.37;;;8.13;;
69369;SDS011;56530;42.640;23.372;2023-06-10T02:30:48;12.97;;;8.17;;
69369;SDS011;56530;42.640;23.372;2023-06-10T02:33:13;9.30;;;8.40;;
69369;SDS011;56530;42.640;23.372;2023-06-10T02:35:40;8.80;;;7.43;;
69369;SDS011;56530;42.640;23.372;2023-06-10T02:38:05;9.37;;;6.77;;
69369;SDS011;56530;42.640;23.372;2023-06-10T02:40:30;8.63;;;7.40;;
69369;SDS011;56530;42.640;23.372;2023-06-10T02:42:56;8.83;;;6.90;;
69369;SDS011;56530;42.640;23.372;2023-06-10T02:45:23;9.00;;;7.25;;
69369;SDS011;56530;42.640;23.372;2023-06-10T02:47:48;9.23;;;6.83;;
69369;SDS011;56530;42.640;23.372;2023-06-10T02:50:14;8.70;;;6.60;;
69369;SDS011;56530;42.640;23.372;2023-06-10T02:52:39;6.57;;;5.80;;
69369;SDS011;56530;42.640;23.372;2023-06-10T02:55:04;7.20;;;5.97;;
69369;SDS011;56530;42.640;23.372;2023-06-10T02:57:30;6.73;;;6.10;;
69369;SDS011;56530;42.640;23.372;2023-06-10T02:59:55;8.70;;;5.70;;
69369;SDS011;56530;42.640;23.372;2023-06-10T03:02:21;10.97;;;6.17;;
69369;SDS011;56530;42.640;23.372;2023-06-10T03:04:47;6.57;;;5.73;;
69369;SDS011;56530;42.640;23.372;2023-06-10T03:07:12;9.48;;;7.90;;
69369;SDS011;56530;42.640;23.372;2023-06-10T03:09:38;9.90;;;8.95;;
69369;SDS011;56530;42.640;23.372;2023-06-10T03:12:04;9.90;;;8.33;;
69369;SDS011;56530;42.640;23.372;2023-06-10T03:14:31;9.55;;;8.52;;
69369;SDS011;56530;42.640;23.372;2023-06-10T03:16:56;9.83;;;8.43;;
69369;SDS011;56530;42.640;23.372;2023-06-10T03:19:21;12.47;;;8.97;;
69369;SDS011;56530;42.640;23.372;2023-06-10T03:21:49;8.65;;;7.70;;
69369;SDS011;56530;42.640;23.372;2023-06-10T03:24:15;10.20;;;8.50;;
69369;SDS011;56530;42.640;23.372;2023-06-10T03:26:41;11.88;;;8.60;;
69369;SDS011;56530;42.640;23.372;2023-06-10T03:29:06;9.57;;;8.52;;
69369;SDS011;56530;42.640;23.372;2023-06-10T03:31:32;9.48;;;8.52;;
69369;SDS011;56530;42.640;23.372;2023-06-10T03:33:57;11.45;;;8.52;;
69369;SDS011;56530;42.640;23.372;2023-06-10T03:36:23;9.45;;;7.97;;
69369;SDS011;56530;42.640;23.372;2023-06-10T03:38:49;9.53;;;8.50;;
69369;SDS011;56530;42.640;23.372;2023-06-10T03:41:16;10.30;;;8.97;;
69369;SDS011;56530;42.640;23.372;2023-06-10T03:43:42;10.13;;;8.67;;
69369;SDS011;56530;42.640;23.372;2023-06-10T03:46:09;9.87;;;8.83;;
69369;SDS011;56530;42.640;23.372;2023-06-10T03:48:35;11.02;;;9.25;;
69369;SDS011;56530;42.640;23.372;2023-06-10T03:51:01;10.90;;;9.50;;
69369;SDS011;56530;42.640;23.372;2023-06-10T03:53:26;10.43;;;8.90;;
69369;SDS011;56530;42.640;23.372;2023-06-10T03:55:52;9.13;;;8.33;;
69369;SDS011;56530;42.640;23.372;2023-06-10T03:58:17;12.43;;;9.50;;
69369;SDS011;56530;42.640;23.372;2023-06-10T04:00:43;11.17;;;9.10;;
69369;SDS011;56530;42.640;23.372;2023-06-10T04:03:08;14.13;;;9.73;;
69369;SDS011;56530;42.640;23.372;2023-06-10T04:05:34;10.60;;;9.52;;
69369;SDS011;56530;42.640;23.372;2023-06-10T04:08:00;11.90;;;9.10;;
69369;SDS011;56530;42.640;23.372;2023-06-10T04:10:26;12.02;;;9.18;;
69369;SDS011;56530;42.640;23.372;2023-06-10T04:12:52;10.55;;;9.27;;
69369;SDS011;56530;42.640;23.372;2023-06-10T04:15:17;10.63;;;9.53;;
69369;SDS011;56530;42.640;23.372;2023-06-10T04:17:43;10.67;;;9.57;;
69369;SDS011;56530;42.640;23.372;2023-06-10T04:20:08;12.03;;;10.20;;
69369;SDS011;56530;42.640;23.372;2023-06-10T04:22:34;11.17;;;10.00;;
69369;SDS011;56530;42.640;23.372;2023-06-10T04:25:01;13.60;;;10.27;;
69369;SDS011;56530;42.640;23.372;2023-06-10T04:27:27;12.90;;;10.23;;
69369;SDS011;56530;42.640;23.372;2023-06-10T04:29:53;12.63;;;11.32;;
69369;SDS011;56530;42.640;23.372;2023-06-10T04:32:18;11.13;;;10.10;;
69369;SDS011;56530;42.640;23.372;2023-06-10T04:34:43;11.82;;;10.05;;
69369;SDS011;56530;42.640;23.372;2023-06-10T04:37:09;12.60;;;9.98;;
69369;SDS011;56530;42.640;23.372;2023-06-10T04:39:34;11.55;;;10.45;;
69369;SDS011;56530;42.640;23.372;2023-06-10T04:42:00;14.00;;;9.33;;
69369;SDS011;56530;42.640;23.372;2023-06-10T04:44:26;11.15;;;10.10;;
69369;SDS011;56530;42.640;23.372;2023-06-10T04:46:52;11.63;;;9.90;;
69369;SDS011;56530;42.640;23.372;2023-06-10T04:49:17;11.07;;;9.93;;
69369;SDS011;56530;42.640;23.372;2023-06-10T04:51:42;10.27;;;9.30;;
69369;SDS011;56530;42.640;23.372;2023-06-10T04:54:08;10.83;;;9.40;;
69369;SDS011;56530;42.640;23.372;2023-06-10T04:56:33;12.50;;;9.43;;
69369;SDS011;56530;42.640;23.372;2023-06-10T04:58:59;12.60;;;9.90;;
69369;SDS011;56530;42.640;23.372;2023-06-10T05:01:25;10.75;;;9.68;;
69369;SDS011;56530;42.640;23.372;2023-06-10T05:03:50;17.47;;;10.40;;
69369;SDS011;56530;42.640;23.372;2023-06-10T05:06:16;12.20;;;10.00;;
69369;SDS011;56530;42.640;23.372;2023-06-10T05:08:41;12.70;;;10.53;;
69369;SDS011;56530;42.640;23.372;2023-06-10T05:11:06;14.03;;;10.20;;
69369;SDS011;56530;42.640;23.372;2023-06-10T05:13:32;10.47;;;9.30;;
69369;SDS011;56530;42.640;23.372;2023-06-10T05:15:57;11.63;;;9.80;;
69369;SDS011;56530;42.640;23.372;2023-06-10T05:18:23;10.63;;;9.20;;
69369;SDS011;56530;42.640;23.372;2023-06-10T05:20:48;10.40;;;9.07;;
69369;SDS011;56530;42.640;23.372;2023-06-10T05:23:14;10.40;;;9.30;;
69369;SDS011;56530;42.640;23.372;2023-06-10T05:25:40;10.47;;;9.43;;
69369;SDS011;56530;42.640;23.372;2023-06-10T05:28:06;10.70;;;9.65;;
69369;SDS011;56530;42.640;23.372;2023-06-10T05:30:35;9.30;;;8.40;;
69369;SDS011;56530;42.640;23.372;2023-06-10T05:33:01;11.98;;;8.77;;
69369;SDS011;56530;42.640;23.372;2023-06-10T05:35:26;9.70;;;8.80;;
69369;SDS011;56530;42.640;23.372;2023-06-10T05:37:51;11.97;;;8.27;;
69369;SDS011;56530;42.640;23.372;2023-06-10T05:40:17;9.43;;;8.53;;
69369;SDS011;56530;42.640;23.372;2023-06-10T05:42:42;9.77;;;8.77;;
69369;SDS011;56530;42.640;23.372;2023-06-10T05:45:08;10.50;;;9.00;;
69369;SDS011;56530;42.640;23.372;2023-06-10T05:47:34;10.35;;;9.05;;
69369;SDS011;56530;42.640;23.372;2023-06-10T05:49:59;10.20;;;8.97;;
69369;SDS011;56530;42.640;23.372;2023-06-10T05:52:25;12.77;;;10.10;;
69369;SDS011;56530;42.640;23.372;2023-06-10T05:54:51;16.00;;;9.85;;
69369;SDS011;56530;42.640;23.372;2023-06-10T05:57:16;11.63;;;10.63;;
69369;SDS011;56530;42.640;23.372;2023-06-10T05:59:41;11.27;;;10.18;;
69369;SDS011;56530;42.640;23.372;2023-06-10T06:02:07;11.30;;;10.15;;
69369;SDS011;56530;42.640;23.372;2023-06-10T06:04:33;12.27;;;11.05;;
69369;SDS011;56530;42.640;23.372;2023-06-10T06:06:58;12.27;;;11.00;;
69369;SDS011;56530;42.640;23.372;2023-06-10T06:09:24;12.17;;;10.97;;
69369;SDS011;56530;42.640;23.372;2023-06-10T06:11:49;12.50;;;11.20;;
69369;SDS011;56530;42.640;23.372;2023-06-10T06:14:15;13.57;;;11.93;;
69369;SDS011;56530;42.640;23.372;2023-06-10T06:16:40;12.70;;;11.43;;
69369;SDS011;56530;42.640;23.372;2023-06-10T06:19:06;13.27;;;11.87;;
69369;SDS011;56530;42.640;23.372;2023-06-10T06:21:31;14.33;;;11.83;;
69369;SDS011;56530;42.640;23.372;2023-06-10T06:23:56;13.80;;;12.37;;
69369;SDS011;56530;42.640;23.372;2023-06-10T06:26:23;18.00;;;11.60;;
69369;SDS011;56530;42.640;23.372;2023-06-10T06:28:48;13.23;;;11.13;;
69369;SDS011;56530;42.640;23.372;2023-06-10T06:31:13;13.00;;;11.63;;
69369;SDS011;56530;42.640;23.372;2023-06-10T06:33:39;13.93;;;11.40;;
69369;SDS011;56530;42.640;23.372;2023-06-10T06:36:05;13.03;;;11.73;;
69369;SDS011;56530;42.640;23.372;2023-06-10T06:38:30;14.43;;;12.93;;
69369;SDS011;56530;42.640;23.372;2023-06-10T06:40:55;14.87;;;13.50;;
69369;SDS011;56530;42.640;23.372;2023-06-10T06:43:21;13.77;;;12.23;;
69369;SDS011;56530;42.640;23.372;2023-06-10T06:45:46;15.20;;;12.93;;
69369;SDS011;56530;42.640;23.372;2023-06-10T06:48:12;15.50;;;12.80;;
69369;SDS011;56530;42.640;23.372;2023-06-10T06:50:37;15.50;;;12.07;;
69369;SDS011;56530;42.640;23.372;2023-06-10T06:53:03;15.47;;;13.10;;
69369;SDS011;56530;42.640;23.372;2023-06-10T06:55:29;17.70;;;12.93;;
69369;SDS011;56530;42.640;23.372;2023-06-10T06:57:54;17.98;;;11.50;;
69369;SDS011;56530;42.640;23.372;2023-06-10T07:00:20;12.80;;;11.13;;
69369;SDS011;56530;42.640;23.372;2023-06-10T07:02:46;13.10;;;10.32;;
69369;SDS011;56530;42.640;23.372;2023-06-10T07:05:11;11.97;;;10.67;;
69369;SDS011;56530;42.640;23.372;2023-06-10T07:07:37;16.00;;;10.37;;
69369;SDS011;56530;42.640;23.372;2023-06-10T07:10:02;14.33;;;11.20;;
69369;SDS011;56530;42.640;23.372;2023-06-10T07:12:27;15.33;;;10.67;;
69369;SDS011;56530;42.640;23.372;2023-06-10T07:14:53;11.03;;;9.40;;
69369;SDS011;56530;42.640;23.372;2023-06-10T07:17:18;16.07;;;9.93;;
69369;SDS011;56530;42.640;23.372;2023-06-10T07:19:45;10.87;;;9.17;;
69369;SDS011;56530;42.640;23.372;2023-06-10T07:22:10;11.60;;;8.53;;
69369;SDS011;56530;42.640;23.372;2023-06-10T07:24:36;11.13;;;7.37;;
69369;SDS011;56530;42.640;23.372;2023-06-10T07:27:01;8.37;;;7.40;;
69369;SDS011;56530;42.640;23.372;2023-06-10T07:29:26;10.87;;;8.53;;
69369;SDS011;56530;42.640;23.372;2023-06-10T07:31:52;8.33;;;7.27;;
69369;SDS011;56530;42.640;23.372;2023-06-10T07:34:18;8.95;;;6.30;;
69369;SDS011;56530;42.640;23.372;2023-06-10T07:36:45;10.70;;;5.72;;
69369;SDS011;56530;42.640;23.372;2023-06-10T07:39:10;12.50;;;5.97;;
69369;SDS011;56530;42.640;23.372;2023-06-10T07:41:36;8.23;;;6.20;;
69369;SDS011;56530;42.640;23.372;2023-06-10T07:44:01;9.10;;;6.40;;
69369;SDS011;56530;42.640;23.372;2023-06-10T07:46:27;9.90;;;6.65;;
69369;SDS011;56530;42.640;23.372;2023-06-10T07:48:53;6.93;;;5.78;;
69369;SDS011;56530;42.640;23.372;2023-06-10T07:51:20;8.93;;;6.10;;
69369;SDS011;56530;42.640;23.372;2023-06-10T07:53:45;8.77;;;5.40;;
69369;SDS011;56530;42.640;23.372;2023-06-10T07:56:11;7.73;;;5.70;;
69369;SDS011;56530;42.640;23.372;2023-06-10T07:58:36;11.70;;;6.00;;
69369;SDS011;56530;42.640;23.372;2023-06-10T08:01:01;9.90;;;5.90;;
69369;SDS011;56530;42.640;23.372;2023-06-10T08:03:27;9.57;;;5.90;;
69369;SDS011;56530;42.640;23.372;2023-06-10T08:05:52;12.67;;;6.40;;
69369;SDS011;56530;42.640;23.372;2023-06-10T08:08:18;17.23;;;10.07;;
69369;SDS011;56530;42.640;23.372;2023-06-10T08:10:43;12.52;;;8.23;;
69369;SDS011;56530;42.640;23.372;2023-06-10T08:13:08;14.20;;;8.20;;
69369;SDS011;56530;42.640;23.372;2023-06-10T08:15:34;15.07;;;7.20;;
69369;SDS011;56530;42.640;23.372;2023-06-10T08:17:59;8.47;;;6.87;;
69369;SDS011;56530;42.640;23.372;2023-06-10T08:20:25;10.63;;;6.93;;
69369;SDS011;56530;42.640;23.372;2023-06-10T08:22:50;12.93;;;6.88;;
69369;SDS011;56530;42.640;23.372;2023-06-10T08:25:15;10.68;;;6.28;;
69369;SDS011;56530;42.640;23.372;2023-06-10T08:27:41;12.97;;;8.27;;
69369;SDS011;56530;42.640;23.372;2023-06-10T08:30:06;14.50;;;9.77;;
69369;SDS011;56530;42.640;23.372;2023-06-10T08:32:33;12.68;;;7.55;;
69369;SDS011;56530;42.640;23.372;2023-06-10T08:34:58;17.30;;;7.70;;
69369;SDS011;56530;42.640;23.372;2023-06-10T08:37:24;12.97;;;5.90;;
69369;SDS011;56530;42.640;23.372;2023-06-10T08:39:49;10.10;;;6.27;;
69369;SDS011;56530;42.640;23.372;2023-06-10T08:42:22;9.55;;;5.13;;
69369;SDS011;56530;42.640;23.372;2023-06-10T08:44:55;6.53;;;5.40;;
69369;SDS011;56530;42.640;23.372;2023-06-10T08:47:22;6.82;;;5.35;;
69369;SDS011;56530;42.640;23.372;2023-06-10T08:49:48;8.85;;;5.90;;
69369;SDS011;56530;42.640;23.372;2023-06-10T08:52:17;9.03;;;5.50;;
69369;SDS011;56530;42.640;23.372;2023-06-10T08:54:59;6.90;;;4.75;;
69369;SDS011;56530;42.640;23.372;2023-06-10T08:57:26;5.95;;;4.60;;
69369;SDS011;56530;42.640;23.372;2023-06-10T08:59:52;6.60;;;4.50;;
69369;SDS011;56530;42.640;23.372;2023-06-10T09:02:18;5.30;;;3.45;;
69369;SDS011;56530;42.640;23.372;2023-06-10T09:04:45;6.17;;;3.87;;
69369;SDS011;56530;42.640;23.372;2023-06-10T09:07:11;8.47;;;4.40;;
69369;SDS011;56530;42.640;23.372;2023-06-10T09:09:39;6.40;;;3.77;;
69369;SDS011;56530;42.640;23.372;2023-06-10T09:12:07;6.32;;;3.40;;
69369;SDS011;56530;42.640;23.372;2023-06-10T09:14:33;5.40;;;3.70;;
69369;SDS011;56530;42.640;23.372;2023-06-10T09:16:58;5.67;;;3.80;;
69369;SDS011;56530;42.640;23.372;2023-06-10T09:19:25;6.53;;;4.37;;
69369;SDS011;56530;42.640;23.372;2023-06-10T09:21:50;6.68;;;5.13;;
69369;SDS011;56530;42.640;23.372;2023-06-10T09:24:16;6.03;;;4.07;;
69369;SDS011;56530;42.640;23.372;2023-06-10T09:26:42;6.75;;;4.38;;
69369;SDS011;56530;42.640;23.372;2023-06-10T09:29:08;7.20;;;4.00;;
69369;SDS011;56530;42.640;23.372;2023-06-10T09:31:37;4.88;;;3.33;;
69369;SDS011;56530;42.640;23.372;2023-06-10T09:34:07;6.90;;;4.00;;
69369;SDS011;56530;42.640;23.372;2023-06-10T09:36:34;4.10;;;3.65;;
69369;SDS011;56530;42.640;23.372;2023-06-10T09:39:00;5.35;;;4.03;;
69369;SDS011;56530;42.640;23.372;2023-06-10T09:41:33;5.95;;;3.70;;
69369;SDS011;56530;42.640;23.372;2023-06-10T09:44:09;7.25;;;4.75;;
69369;SDS011;56530;42.640;23.372;2023-06-10T09:46:37;3.53;;;3.10;;
69369;SDS011;56530;42.640;23.372;2023-06-10T09:49:02;3.30;;;2.87;;
69369;SDS011;56530;42.640;23.372;2023-06-10T09:51:27;4.43;;;3.20;;
69369;SDS011;56530;42.640;23.372;2023-06-10T09:53:53;8.17;;;4.00;;
69369;SDS011;56530;42.640;23.372;2023-06-10T09:56:19;5.07;;;3.70;;
69369;SDS011;56530;42.640;23.372;2023-06-10T09:58:44;3.80;;;3.50;;
69369;SDS011;56530;42.640;23.372;2023-06-10T10:01:11;4.00;;;3.60;;
69369;SDS011;56530;42.640;23.372;2023-06-10T10:03:48;10.23;;;3.87;;
69369;SDS011;56530;42.640;23.372;2023-06-10T10:06:15;5.07;;;4.10;;
69369;SDS011;56530;42.640;23.372;2023-06-10T10:08:41;3.58;;;3.28;;
69369;SDS011;56530;42.640;23.372;2023-06-10T10:11:08;4.15;;;3.60;;
69369;SDS011;56530;42.640;23.372;2023-06-10T10:13:34;5.57;;;3.60;;
69369;SDS011;56530;42.640;23.372;2023-06-10T10:16:01;5.33;;;3.50;;
69369;SDS011;56530;42.640;23.372;2023-06-10T10:18:29;4.03;;;3.63;;
69369;SDS011;56530;42.640;23.372;2023-06-10T10:20:56;4.55;;;3.30;;
69369;SDS011;56530;42.640;23.372;2023-06-10T10:23:34;3.33;;;3.03;;
69369;SDS011;56530;42.640;23.372;2023-06-10T10:26:04;12.57;;;4.80;;
69369;SDS011;56530;42.640;23.372;2023-06-10T10:28:44;11.30;;;4.90;;
69369;SDS011;56530;42.640;23.372;2023-06-10T10:31:14;11.60;;;4.97;;
69369;SDS011;56530;42.640;23.372;2023-06-10T10:36:26;7.60;;;4.40;;
69369;SDS011;56530;42.640;23.372;2023-06-10T10:38:52;16.50;;;5.85;;
69369;SDS011;56530;42.640;23.372;2023-06-10T10:41:18;10.32;;;4.97;;
69369;SDS011;56530;42.640;23.372;2023-06-10T10:43:45;9.10;;;5.10;;
69369;SDS011;56530;42.640;23.372;2023-06-10T10:46:12;8.70;;;4.53;;
69369;SDS011;56530;42.640;23.372;2023-06-10T10:48:39;9.40;;;4.28;;
69369;SDS011;56530;42.640;23.372;2023-06-10T10:51:06;5.50;;;4.18;;
69369;SDS011;56530;42.640;23.372;2023-06-10T10:53:32;4.78;;;3.50;;
69369;SDS011;56530;42.640;23.372;2023-06-10T10:56:14;7.20;;;3.78;;
69369;SDS011;56530;42.640;23.372;2023-06-10T10:58:40;5.50;;;3.60;;
69369;SDS011;56530;42.640;23.372;2023-06-10T11:01:13;5.38;;;3.78;;
69369;SDS011;56530;42.640;23.372;2023-06-10T11:03:46;8.75;;;4.00;;
69369;SDS011;56530;42.640;23.372;2023-06-10T11:06:14;4.47;;;3.20;;
69369;SDS011;56530;42.640;23.372;2023-06-10T11:11:25;4.13;;;3.60;;
69369;SDS011;56530;42.640;23.372;2023-06-10T11:16:28;6.97;;;4.80;;
69369;SDS011;56530;42.640;23.372;2023-06-10T11:18:54;6.45;;;4.18;;
69369;SDS011;56530;42.640;23.372;2023-06-10T11:21:20;6.85;;;4.00;;
69369;SDS011;56530;42.640;23.372;2023-06-10T11:23:45;7.00;;;4.40;;
69369;SDS011;56530;42.640;23.372;2023-06-10T11:26:11;15.23;;;4.77;;
69369;SDS011;56530;42.640;23.372;2023-06-10T11:31:21;10.23;;;4.80;;
69369;SDS011;56530;42.640;23.372;2023-06-10T11:33:48;5.55;;;3.47;;
69369;SDS011;56530;42.640;23.372;2023-06-10T11:36:18;5.37;;;3.93;;
69369;SDS011;56530;42.640;23.372;2023-06-10T11:38:44;5.50;;;3.97;;
69369;SDS011;56530;42.640;23.372;2023-06-10T11:41:10;4.63;;;4.07;;
69369;SDS011;56530;42.640;23.372;2023-06-10T11:43:36;6.97;;;3.78;;
69369;SDS011;56530;42.640;23.372;2023-06-10T11:46:02;4.00;;;3.47;;
69369;SDS011;56530;42.640;23.372;2023-06-10T11:48:27;4.03;;;3.63;;
69369;SDS011;56530;42.640;23.372;2023-06-10T11:50:56;6.57;;;3.85;;
69369;SDS011;56530;42.640;23.372;2023-06-10T11:53:21;5.53;;;3.63;;
69369;SDS011;56530;42.640;23.372;2023-06-10T11:55:50;4.13;;;3.60;;
69369;SDS011;56530;42.640;23.372;2023-06-10T11:58:20;4.43;;;3.60;;
69369;SDS011;56530;42.640;23.372;2023-06-10T12:03:13;3.97;;;3.60;;
69369;SDS011;56530;42.640;23.372;2023-06-10T12:05:39;4.47;;;3.60;;
69369;SDS011;56530;42.640;23.372;2023-06-10T12:08:08;5.67;;;3.67;;
69369;SDS011;56530;42.640;23.372;2023-06-10T12:10:39;12.55;;;5.95;;
69369;SDS011;56530;42.640;23.372;2023-06-10T12:13:05;6.40;;;4.47;;
69369;SDS011;56530;42.640;23.372;2023-06-10T12:15:31;4.07;;;3.30;;
69369;SDS011;56530;42.640;23.372;2023-06-10T12:17:57;4.50;;;3.80;;
69369;SDS011;56530;42.640;23.372;2023-06-10T12:20:26;7.77;;;4.80;;
69369;SDS011;56530;42.640;23.372;2023-06-10T12:22:53;6.38;;;4.55;;
69369;SDS011;56530;42.640;23.372;2023-06-10T12:25:23;4.60;;;3.35;;
69369;SDS011;56530;42.640;23.372;2023-06-10T12:27:51;5.00;;;3.60;;
69369;SDS011;56530;42.640;23.372;2023-06-10T12:30:21;4.72;;;4.22;;
69369;SDS011;56530;42.640;23.372;2023-06-10T12:32:48;4.15;;;3.47;;
69369;SDS011;56530;42.640;23.372;2023-06-10T12:35:20;3.87;;;3.47;;
69369;SDS011;56530;42.640;23.372;2023-06-10T12:38:00;5.32;;;3.42;;
69369;SDS011;56530;42.640;23.372;2023-06-10T12:40:33;6.80;;;3.47;;
69369;SDS011;56530;42.640;23.372;2023-06-10T12:43:00;4.18;;;3.08;;
69369;SDS011;56530;42.640;23.372;2023-06-10T12:45:30;6.38;;;3.58;;
69369;SDS011;56530;42.640;23.372;2023-06-10T12:48:17;5.17;;;3.67;;
69369;SDS011;56530;42.640;23.372;2023-06-10T12:50:44;3.38;;;3.08;;
69369;SDS011;56530;42.640;23.372;2023-06-10T12:53:14;3.58;;;3.08;;
69369;SDS011;56530;42.640;23.372;2023-06-10T12:55:40;5.63;;;3.33;;
69369;SDS011;56530;42.640;23.372;2023-06-10T12:58:05;4.00;;;3.47;;
69369;SDS011;56530;42.640;23.372;2023-06-10T13:00:31;3.93;;;3.53;;
69369;SDS011;56530;42.640;23.372;2023-06-10T13:02:56;3.83;;;3.40;;
69369;SDS011;56530;42.640;23.372;2023-06-10T13:05:30;5.70;;;3.90;;
69369;SDS011;56530;42.640;23.372;2023-06-10T13:07:56;7.05;;;4.13;;
69369;SDS011;56530;42.640;23.372;2023-06-10T13:10:22;8.27;;;4.18;;
69369;SDS011;56530;42.640;23.372;2023-06-10T13:12:47;11.20;;;5.47;;
69369;SDS011;56530;42.640;23.372;2023-06-10T13:15:13;7.10;;;4.53;;
69369;SDS011;56530;42.640;23.372;2023-06-10T13:17:39;8.80;;;4.63;;
69369;SDS011;56530;42.640;23.372;2023-06-10T13:20:05;7.47;;;4.30;;
69369;SDS011;56530;42.640;23.372;2023-06-10T13:22:32;5.35;;;3.60;;
69369;SDS011;56530;42.640;23.372;2023-06-10T13:24:58;4.70;;;4.10;;
69369;SDS011;56530;42.640;23.372;2023-06-10T13:27:24;5.68;;;4.10;;
69369;SDS011;56530;42.640;23.372;2023-06-10T13:29:50;3.90;;;3.60;;
69369;SDS011;56530;42.640;23.372;2023-06-10T13:32:15;6.67;;;3.60;;
69369;SDS011;56530;42.640;23.372;2023-06-10T13:34:41;4.15;;;3.75;;
69369;SDS011;56530;42.640;23.372;2023-06-10T13:37:06;7.80;;;3.50;;
69369;SDS011;56530;42.640;23.372;2023-06-10T13:39:31;7.57;;;3.87;;
69369;SDS011;56530;42.640;23.372;2023-06-10T13:41:57;5.13;;;3.97;;
69369;SDS011;56530;42.640;23.372;2023-06-10T13:44:22;6.90;;;4.07;;
69369;SDS011;56530;42.640;23.372;2023-06-10T13:46:48;4.90;;;4.30;;
69369;SDS011;56530;42.640;23.372;2023-06-10T13:49:13;5.00;;;4.50;;
69369;SDS011;56530;42.640;23.372;2023-06-10T13:51:39;6.38;;;4.60;;
69369;SDS011;56530;42.640;23.372;2023-06-10T13:54:04;5.30;;;4.23;;
69369;SDS011;56530;42.640;23.372;2023-06-10T13:56:29;5.45;;;3.90;;
69369;SDS011;56530;42.640;23.372;2023-06-10T13:58:55;5.90;;;3.83;;
69369;SDS011;56530;42.640;23.372;2023-06-10T14:01:21;5.88;;;4.50;;
69369;SDS011;56530;42.640;23.372;2023-06-10T14:03:46;6.20;;;4.30;;
69369;SDS011;56530;42.640;23.372;2023-06-10T14:06:11;9.27;;;5.17;;
69369;SDS011;56530;42.640;23.372;2023-06-10T14:08:40;7.47;;;4.40;;
69369;SDS011;56530;42.640;23.372;2023-06-10T14:11:06;6.25;;;4.07;;
69369;SDS011;56530;42.640;23.372;2023-06-10T14:13:31;3.90;;;3.40;;
69369;SDS011;56530;42.640;23.372;2023-06-10T14:15:58;5.25;;;4.18;;
69369;SDS011;56530;42.640;23.372;2023-06-10T14:18:27;6.22;;;4.20;;
69369;SDS011;56530;42.640;23.372;2023-06-10T14:20:53;6.57;;;4.03;;
69369;SDS011;56530;42.640;23.372;2023-06-10T14:23:18;6.63;;;4.37;;
69369;SDS011;56530;42.640;23.372;2023-06-10T14:25:43;7.00;;;4.13;;
69369;SDS011;56530;42.640;23.372;2023-06-10T14:28:09;4.37;;;3.97;;
69369;SDS011;56530;42.640;23.372;2023-06-10T14:30:34;6.87;;;3.93;;
69369;SDS011;56530;42.640;23.372;2023-06-10T14:33:00;7.03;;;4.20;;
69369;SDS011;56530;42.640;23.372;2023-06-10T14:35:25;6.30;;;3.80;;
69369;SDS011;56530;42.640;23.372;2023-06-10T14:37:51;4.38;;;3.97;;
69369;SDS011;56530;42.640;23.372;2023-06-10T14:40:16;5.28;;;4.07;;
69369;SDS011;56530;42.640;23.372;2023-06-10T14:42:42;6.27;;;4.23;;
69369;SDS011;56530;42.640;23.372;2023-06-10T14:45:07;4.87;;;4.00;;